Time;durP1;ratioP1;P1;durP2;ratioP2;P2;SDS_P1;SDS_P2;PMS_P1;PMS_P2;Temp;Humidity;BMP_temperature;BMP_pressure;BME280_temperature;BME280_humidity;BME280_pressure;Samples;Min_cycle;Max_cycle;Signal;HPM_P1;HPM_P2
2023/12/26 00:00:14;;;;;;;3.53;2.80;;;;;;;9.61;100.00;100063.31;5074745;28;20218;-77
2023/12/26 00:02:39;;;;;;;5.20;3.10;;;;;;;9.55;100.00;100068.53;5072815;28;20322;-77
2023/12/26 00:05:05;;;;;;;7.67;6.73;;;;;;;9.55;100.00;100071.13;5076980;28;20231;-78
2023/12/26 00:07:31;;;;;;;4.70;4.20;;;;;;;9.49;100.00;100069.44;5077770;28;20228;-77
2023/12/26 00:09:56;;;;;;;2.30;2.07;;;;;;;9.48;100.00;100057.41;5078402;28;20255;-78
2023/12/26 00:12:24;;;;;;;2.33;1.63;;;;;;;9.56;100.00;100047.00;5071472;28;20640;-78
2023/12/26 00:14:49;;;;;;;3.70;1.80;;;;;;;9.51;100.00;100051.34;5074013;28;20421;-78
2023/12/26 00:17:15;;;;;;;1.60;1.50;;;;;;;9.54;100.00;100053.91;5075862;28;20662;-77
2023/12/26 00:19:40;;;;;;;2.60;1.40;;;;;;;9.57;100.00;100056.47;5071992;28;20209;-76
2023/12/26 00:22:06;;;;;;;3.10;1.67;;;;;;;9.50;100.00;100060.84;5068088;28;20192;-78
2023/12/26 00:24:32;;;;;;;2.40;1.60;;;;;;;9.44;100.00;100068.63;5071163;28;20236;-78
2023/12/26 00:26:57;;;;;;;2.83;1.90;;;;;;;9.47;100.00;100063.44;5075658;28;20185;-78
2023/12/26 00:29:24;;;;;;;2.57;1.60;;;;;;;9.51;100.00;100046.19;5070787;28;20185;-77
2023/12/26 00:31:49;;;;;;;2.73;1.80;;;;;;;9.45;100.00;100063.44;5070717;28;20202;-77
2023/12/26 00:34:15;;;;;;;2.60;1.80;;;;;;;9.40;100.00;100059.16;5073855;28;20182;-77
2023/12/26 00:36:40;;;;;;;3.40;1.80;;;;;;;9.43;100.00;100059.16;5074161;28;20193;-77
2023/12/26 00:39:06;;;;;;;2.33;1.60;;;;;;;9.46;100.00;100062.56;5075844;28;20270;-78
2023/12/26 00:41:34;;;;;;;2.60;1.47;;;;;;;9.44;100.00;100063.44;5085408;28;20219;-78
2023/12/26 00:43:59;;;;;;;5.10;2.00;;;;;;;9.40;100.00;100072.09;5075094;28;20217;-77
2023/12/26 00:46:25;;;;;;;2.60;1.40;;;;;;;9.37;100.00;100075.56;5071832;28;20664;-78
2023/12/26 00:48:50;;;;;;;3.80;1.80;;;;;;;9.34;100.00;100074.72;5073320;28;20207;-78
2023/12/26 00:51:16;;;;;;;2.67;1.83;;;;;;;9.39;100.00;100079.00;5066552;28;20750;-78
2023/12/26 00:53:41;;;;;;;2.13;1.60;;;;;;;9.36;100.00;100080.75;5072005;28;20203;-78
2023/12/26 00:56:07;;;;;;;1.63;1.33;;;;;;;9.34;100.00;100085.06;5069879;28;20189;-77
2023/12/26 00:58:33;;;;;;;5.00;1.80;;;;;;;9.34;100.00;100085.06;5071915;28;20674;-77
2023/12/26 01:00:58;;;;;;;2.63;1.30;;;;;;;9.33;100.00;100079.03;5067796;28;20246;-79
2023/12/26 01:03:23;;;;;;;4.57;1.83;;;;;;;9.34;100.00;100078.16;5066083;28;20198;-78
2023/12/26 01:05:50;;;;;;;2.83;1.67;;;;;;;9.35;100.00;100081.63;5072902;28;20173;-77
2023/12/26 01:08:16;;;;;;;2.53;1.63;;;;;;;9.37;100.00;100087.63;5070049;28;20179;-77
2023/12/26 01:10:42;;;;;;;3.73;1.70;;;;;;;9.36;100.00;100084.19;5070691;28;20203;-78
2023/12/26 01:13:07;;;;;;;2.13;1.40;;;;;;;9.32;100.00;100097.97;5069725;28;20188;-77
2023/12/26 01:15:33;;;;;;;2.33;1.80;;;;;;;9.34;100.00;100087.66;5071798;28;20192;-77
2023/12/26 01:17:58;;;;;;;2.77;1.70;;;;;;;9.27;100.00;100103.16;5068409;28;20288;-78
2023/12/26 01:20:24;;;;;;;4.43;1.83;;;;;;;9.33;100.00;100114.34;5078243;28;20213;-78
2023/12/26 01:22:49;;;;;;;4.30;1.70;;;;;;;9.35;100.00;100110.88;5069744;28;20635;-77
2023/12/26 01:25:14;;;;;;;2.40;1.70;;;;;;;9.34;100.00;100105.72;5075741;28;20199;-78
2023/12/26 01:27:40;;;;;;;1.50;1.40;;;;;;;9.32;100.00;100112.63;5078976;28;20699;-78
2023/12/26 01:30:06;;;;;;;3.23;1.60;;;;;;;9.33;100.00;100111.75;5071636;28;20232;-77
2023/12/26 01:32:32;;;;;;;2.87;1.70;;;;;;;9.37;100.00;100118.63;5066354;28;20647;-78
2023/12/26 01:34:57;;;;;;;1.70;1.50;;;;;;;9.29;100.00;100116.94;5070643;28;20192;-77
2023/12/26 01:37:23;;;;;;;3.30;1.70;;;;;;;9.32;100.00;100126.38;5076975;28;20653;-78
2023/12/26 01:39:48;;;;;;;1.83;1.50;;;;;;;9.28;100.00;100127.28;5079560;28;20206;-77
2023/12/26 01:42:13;;;;;;;1.60;1.47;;;;;;;9.28;100.00;100132.44;5064686;28;20187;-77
2023/12/26 01:44:39;;;;;;;2.07;1.60;;;;;;;9.33;100.00;100130.69;5074843;28;20191;-77
2023/12/26 01:47:04;;;;;;;4.30;1.70;;;;;;;9.38;100.00;100136.69;5073320;28;20188;-77
2023/12/26 01:49:30;;;;;;;3.47;1.73;;;;;;;9.33;100.00;100140.16;5073153;28;20221;-78
2023/12/26 01:51:58;;;;;;;2.50;1.47;;;;;;;9.31;100.00;100140.16;5071882;28;20232;-77
2023/12/26 01:54:28;;;;;;;3.30;1.70;;;;;;;9.32;100.00;100143.59;5083468;28;20196;-78
2023/12/26 01:56:54;;;;;;;2.70;1.60;;;;;;;9.32;100.00;100136.72;5072272;28;20238;-78
2023/12/26 01:59:20;;;;;;;2.23;1.37;;;;;;;9.32;100.00;100139.28;5073983;28;20605;-78
2023/12/26 02:01:45;;;;;;;2.97;1.70;;;;;;;9.38;100.00;100140.97;5070563;28;20632;-78
2023/12/26 02:04:11;;;;;;;2.33;1.70;;;;;;;9.29;100.00;100137.59;5068420;28;20190;-77
2023/12/26 02:06:37;;;;;;;3.70;1.70;;;;;;;9.24;100.00;100133.31;5071769;28;20218;-77
2023/12/26 02:09:03;;;;;;;1.60;1.47;;;;;;;9.24;100.00;100138.50;5069193;28;20401;-78
2023/12/26 02:11:29;;;;;;;3.40;1.53;;;;;;;9.21;100.00;100126.47;5067670;28;20812;-78
2023/12/26 02:13:55;;;;;;;2.97;1.37;;;;;;;9.19;100.00;100123.03;5067918;28;20191;-77
2023/12/26 02:16:24;;;;;;;2.97;1.60;;;;;;;9.23;100.00;100123.84;5066928;28;20753;-78
2023/12/26 02:18:50;;;;;;;2.63;2.00;;;;;;;9.18;100.00;100108.41;5070710;28;20211;-77
2023/12/26 02:21:15;;;;;;;2.50;1.63;;;;;;;9.15;100.00;100111.84;5071064;28;20201;-76
2023/12/26 02:23:42;;;;;;;2.13;1.80;;;;;;;9.09;100.00;100111.91;5073519;28;20177;-78
2023/12/26 02:26:07;;;;;;;3.30;1.93;;;;;;;9.06;100.00;100118.81;5067090;28;20646;-78
2023/12/26 02:28:34;;;;;;;2.33;1.50;;;;;;;9.05;100.00;100119.66;5077041;28;20223;-77
2023/12/26 02:31:02;;;;;;;2.77;1.90;;;;;;;9.10;100.00;100128.22;5073053;28;20218;-78
2023/12/26 02:33:29;;;;;;;3.20;1.50;;;;;;;9.07;100.00;100133.44;5075279;28;20197;-77
2023/12/26 02:35:55;;;;;;;4.03;2.00;;;;;;;9.08;100.00;100124.78;5076034;28;20242;-77
2023/12/26 02:38:20;;;;;;;4.07;2.03;;;;;;;9.04;100.00;100131.69;5076033;28;20177;-78
2023/12/26 02:40:51;;;;;;;2.87;1.83;;;;;;;9.08;100.00;100141.16;5071168;28;20588;-77
2023/12/26 02:43:18;;;;;;;2.87;1.77;;;;;;;9.08;100.00;100128.25;5075156;28;20187;-77
2023/12/26 02:45:48;;;;;;;2.20;1.60;;;;;;;9.07;100.00;100128.28;5074301;28;20232;-77
2023/12/26 02:48:14;;;;;;;2.60;1.70;;;;;;;9.10;100.00;100130.81;5073612;28;20190;-78
2023/12/26 02:50:39;;;;;;;2.93;1.73;;;;;;;9.03;100.00;100126.56;5074667;28;20224;-78
2023/12/26 02:53:04;;;;;;;3.20;1.67;;;;;;;9.03;100.00;100132.56;5069747;28;20210;-78
2023/12/26 02:55:30;;;;;;;2.40;2.00;;;;;;;9.08;100.00;100136.00;5073868;28;20189;-78
2023/12/26 02:57:55;;;;;;;1.67;1.40;;;;;;;9.00;100.00;100127.41;5071060;28;20212;-77
2023/12/26 03:00:20;;;;;;;3.03;2.13;;;;;;;9.07;100.00;100115.38;5077811;28;20224;-77
2023/12/26 03:02:46;;;;;;;3.07;1.57;;;;;;;9.03;100.00;100119.66;5075669;28;20774;-78
2023/12/26 03:05:11;;;;;;;2.90;1.80;;;;;;;8.98;100.00;100124.84;5072758;28;20721;-79
2023/12/26 03:07:36;;;;;;;3.00;1.60;;;;;;;9.07;100.00;100118.78;5074475;28;20771;-77
2023/12/26 03:10:07;;;;;;;3.40;1.90;;;;;;;9.04;100.00;100120.53;5068740;28;20218;-77
2023/12/26 03:12:32;;;;;;;2.33;1.77;;;;;;;9.00;100.00;100127.41;5074985;28;20582;-77
2023/12/26 03:14:57;;;;;;;4.07;2.03;;;;;;;9.04;100.00;100131.69;5075945;28;20196;-77
2023/12/26 03:17:23;;;;;;;3.27;1.73;;;;;;;9.04;100.00;100130.84;5080800;28;20228;-77
2023/12/26 03:19:48;;;;;;;3.83;1.80;;;;;;;9.01;100.00;100129.13;5076347;28;20242;-78
2023/12/26 03:22:13;;;;;;;1.50;1.37;;;;;;;8.99;100.00;100131.72;5077727;28;20650;-77
2023/12/26 03:24:39;;;;;;;3.73;1.90;;;;;;;9.11;100.00;100135.97;5082766;28;20927;-78
2023/12/26 03:27:06;;;;;;;3.20;1.80;;;;;;;9.12;100.00;100131.66;5077397;28;20592;-79
2023/12/26 03:29:31;;;;;;;2.27;1.50;;;;;;;9.03;100.00;100136.88;5079373;28;20712;-78
2023/12/26 03:31:56;;;;;;;5.53;2.00;;;;;;;9.08;100.00;100148.03;5081238;28;20343;-77
2023/12/26 03:34:21;;;;;;;2.40;1.60;;;;;;;9.11;100.00;100135.97;5081951;28;20279;-78
2023/12/26 03:36:49;;;;;;;3.70;1.90;;;;;;;9.05;100.00;100136.00;5082542;28;20262;-78
2023/12/26 03:39:14;;;;;;;3.73;1.77;;;;;;;9.08;100.00;100135.13;5080127;28;20433;-77
2023/12/26 03:41:39;;;;;;;3.50;1.57;;;;;;;9.06;100.00;100127.41;5078816;28;20194;-78
2023/12/26 03:44:06;;;;;;;2.93;1.87;;;;;;;9.09;100.00;100129.97;5076923;28;20185;-78
2023/12/26 03:46:31;;;;;;;2.10;1.50;;;;;;;9.11;100.00;100135.97;5075982;28;20272;-78
2023/12/26 03:48:56;;;;;;;3.13;1.50;;;;;;;9.20;100.00;100140.25;5079083;28;20220;-78
2023/12/26 03:51:22;;;;;;;2.67;1.60;;;;;;;9.17;100.00;100134.22;5078616;28;20308;-78
2023/12/26 03:53:47;;;;;;;3.63;1.80;;;;;;;9.17;100.00;100129.94;5078484;28;20219;-78
2023/12/26 03:56:12;;;;;;;3.37;1.60;;;;;;;9.15;100.00;100131.66;5074305;28;20187;-78
2023/12/26 03:58:38;;;;;;;3.10;1.70;;;;;;;9.18;100.00;100129.06;5074377;28;20183;-77
2023/12/26 04:01:03;;;;;;;5.27;2.00;;;;;;;9.21;100.00;100121.31;5079666;28;21245;-78
2023/12/26 04:03:29;;;;;;;3.07;1.70;;;;;;;9.21;100.00;100131.63;5078427;28;20887;-78
2023/12/26 04:05:55;;;;;;;4.17;1.90;;;;;;;9.21;100.00;100133.34;5079171;28;20199;-78
2023/12/26 04:08:21;;;;;;;4.37;1.83;;;;;;;9.21;100.00;100129.06;5075677;28;20212;-78
2023/12/26 04:10:46;;;;;;;4.77;1.80;;;;;;;9.30;100.00;100138.47;5078940;28;20248;-78
2023/12/26 04:13:12;;;;;;;4.00;1.63;;;;;;;9.26;100.00;100139.34;5077467;28;20228;-77
2023/12/26 04:15:37;;;;;;;2.83;1.77;;;;;;;9.26;100.00;100134.19;5078807;28;20244;-79
2023/12/26 04:18:03;;;;;;;1.70;1.37;;;;;;;9.20;100.00;100135.06;5080770;28;20196;-78
2023/12/26 04:20:28;;;;;;;3.43;2.10;;;;;;;9.28;100.00;100129.88;5074134;28;20201;-78
2023/12/26 04:22:54;;;;;;;2.70;1.40;;;;;;;9.25;100.00;100133.31;5080072;28;20185;-78
2023/12/26 04:25:20;;;;;;;4.90;1.90;;;;;;;9.30;100.00;100131.56;5082405;28;20174;-79
2023/12/26 04:27:45;;;;;;;3.10;1.63;;;;;;;9.28;100.00;100132.44;5076561;28;20196;-78
2023/12/26 04:30:11;;;;;;;3.90;1.80;;;;;;;9.27;100.00;100134.16;5075625;28;20206;-79
2023/12/26 04:32:36;;;;;;;4.97;1.90;;;;;;;9.31;100.00;100132.41;5075854;28;20187;-77
2023/12/26 04:35:02;;;;;;;3.00;1.70;;;;;;;9.27;100.00;100141.06;5079144;28;20186;-79
2023/12/26 04:37:27;;;;;;;2.63;2.10;;;;;;;9.32;100.00;100138.44;5075613;28;20231;-77
2023/12/26 04:39:53;;;;;;;2.83;1.53;;;;;;;9.32;100.00;100149.63;5074131;28;20206;-78
2023/12/26 04:42:18;;;;;;;2.77;1.47;;;;;;;9.35;100.00;100139.28;5069714;28;20187;-77
2023/12/26 04:44:46;;;;;;;4.03;1.77;;;;;;;9.36;100.00;100145.31;5071711;28;21917;-78
2023/12/26 04:47:11;;;;;;;3.60;1.77;;;;;;;9.30;100.00;100147.06;5073705;28;21078;-78
2023/12/26 04:49:36;;;;;;;3.87;1.60;;;;;;;9.32;100.00;100143.59;5077218;28;20189;-78
2023/12/26 04:52:02;;;;;;;4.70;1.67;;;;;;;9.35;100.00;100141.84;5076460;28;20207;-78
2023/12/26 04:54:27;;;;;;;5.37;1.97;;;;;;;9.36;100.00;100142.72;5074379;28;20325;-78
2023/12/26 04:56:53;;;;;;;3.20;1.57;;;;;;;9.38;100.00;100146.13;5077112;28;20229;-78
2023/12/26 04:59:18;;;;;;;6.90;1.80;;;;;;;9.38;100.00;100141.84;5071248;28;20547;-78
2023/12/26 05:01:43;;;;;;;3.07;1.70;;;;;;;9.40;100.00;100144.41;5073527;28;20214;-77
2023/12/26 05:04:10;;;;;;;3.43;1.60;;;;;;;9.34;100.00;100145.31;5073809;28;20269;-78
2023/12/26 05:06:36;;;;;;;5.23;2.23;;;;;;;9.37;100.00;100134.13;5069898;28;20586;-78
2023/12/26 05:09:02;;;;;;;3.93;1.80;;;;;;;9.33;100.00;100156.50;5074836;28;20200;-77
2023/12/26 05:11:27;;;;;;;3.57;2.00;;;;;;;9.35;100.00;100151.34;5078509;28;20201;-77
2023/12/26 05:13:54;;;;;;;3.17;1.57;;;;;;;9.37;100.00;100147.03;5076487;28;20268;-79
2023/12/26 05:16:19;;;;;;;4.70;1.63;;;;;;;9.38;100.00;100148.72;5075129;28;20562;-77
2023/12/26 05:18:45;;;;;;;3.90;1.77;;;;;;;9.39;100.00;100166.81;5071504;28;20685;-78
2023/12/26 05:21:21;;;;;;;2.80;1.67;;;;;;;9.39;100.00;100160.75;5077863;28;20217;-78
2023/12/26 05:23:47;;;;;;;2.73;1.50;;;;;;;9.39;100.00;100156.47;5072037;28;20211;-78
2023/12/26 05:26:14;;;;;;;4.20;1.73;;;;;;;9.42;100.00;100166.78;5078850;28;20258;-78
2023/12/26 05:28:39;;;;;;;2.37;1.50;;;;;;;9.35;100.00;100161.69;5077767;28;20189;-78
2023/12/26 05:31:05;;;;;;;5.07;1.60;;;;;;;9.38;100.00;100171.97;5078236;28;20326;-78
2023/12/26 05:33:30;;;;;;;3.93;1.73;;;;;;;9.40;100.00;100173.69;5082819;28;20250;-77
2023/12/26 05:35:56;;;;;;;4.77;1.80;;;;;;;9.41;100.00;100174.53;5075998;28;20190;-77
2023/12/26 05:38:22;;;;;;;3.57;1.80;;;;;;;9.40;100.00;100176.28;5075747;28;20701;-78
2023/12/26 05:40:47;;;;;;;3.37;1.67;;;;;;;9.36;100.00;100182.31;5080177;28;20209;-79
2023/12/26 05:43:12;;;;;;;3.70;1.97;;;;;;;9.38;100.00;100171.97;5077567;28;20254;-78
2023/12/26 05:45:38;;;;;;;2.87;1.60;;;;;;;9.38;100.00;100175.41;5081709;28;20186;-78
2023/12/26 05:48:05;;;;;;;5.83;2.10;;;;;;;9.36;100.00;100187.47;5078400;28;20546;-79
2023/12/26 05:50:31;;;;;;;3.53;1.60;;;;;;;9.42;100.00;100171.09;5081380;28;20213;-78
2023/12/26 05:52:56;;;;;;;3.67;1.70;;;;;;;9.39;100.00;100177.13;5081831;28;20185;-79
2023/12/26 05:55:21;;;;;;;3.33;1.83;;;;;;;9.44;100.00;100182.28;5078844;28;20216;-79
2023/12/26 05:57:47;;;;;;;3.70;2.00;;;;;;;9.46;100.00;100180.53;5081178;28;20276;-79
2023/12/26 06:00:14;;;;;;;3.43;1.43;;;;;;;9.47;100.00;100187.44;5074936;28;20304;-78
2023/12/26 06:02:39;;;;;;;3.63;1.50;;;;;;;9.45;100.00;100192.59;5076919;28;20193;-79
2023/12/26 06:05:06;;;;;;;3.03;1.83;;;;;;;9.42;100.00;100184.00;5077407;28;20182;-78
2023/12/26 06:07:32;;;;;;;3.00;1.60;;;;;;;9.49;100.00;100196.03;5082901;28;20184;-77
2023/12/26 06:09:57;;;;;;;4.43;1.73;;;;;;;9.53;100.00;100202.88;5072725;28;20947;-78
2023/12/26 06:12:23;;;;;;;4.13;1.90;;;;;;;9.50;100.00;100192.56;5073686;28;20227;-78
2023/12/26 06:14:48;;;;;;;3.77;1.67;;;;;;;9.51;100.00;100209.78;5081929;28;20215;-79
2023/12/26 06:17:13;;;;;;;4.97;1.83;;;;;;;9.48;100.00;100222.72;5079322;28;20189;-77
2023/12/26 06:19:39;;;;;;;3.67;1.90;;;;;;;9.55;100.00;100215.78;5083486;28;20187;-78
2023/12/26 06:22:04;;;;;;;3.57;1.83;;;;;;;9.52;100.00;100221.84;5084513;28;20170;-77
2023/12/26 06:24:29;;;;;;;3.23;1.67;;;;;;;9.52;100.00;100215.81;5086384;28;20197;-78
2023/12/26 06:26:55;;;;;;;3.90;1.90;;;;;;;9.55;100.00;100213.22;5078158;28;20597;-78
2023/12/26 06:29:20;;;;;;;4.57;1.87;;;;;;;9.54;100.00;100193.41;5083813;28;20194;-78
2023/12/26 06:31:45;;;;;;;3.37;1.90;;;;;;;9.50;100.00;100194.28;5084734;28;20213;-78
2023/12/26 06:34:11;;;;;;;3.50;1.80;;;;;;;9.48;100.00;100209.81;5078122;28;20586;-77
2023/12/26 06:36:37;;;;;;;6.40;2.00;;;;;;;9.46;100.00;100207.22;5078334;28;20197;-78
2023/12/26 06:39:03;;;;;;;5.03;1.73;;;;;;;9.51;100.00;100206.34;5076064;28;20290;-78
2023/12/26 06:41:29;;;;;;;3.93;1.80;;;;;;;9.50;100.00;100210.66;5078465;28;20213;-77
2023/12/26 06:43:55;;;;;;;3.93;1.73;;;;;;;9.49;100.00;100208.94;5072352;28;20194;-79
2023/12/26 06:46:21;;;;;;;3.70;2.03;;;;;;;9.48;100.00;100216.69;5064852;28;20196;-79
2023/12/26 06:48:47;;;;;;;5.70;2.40;;;;;;;9.52;100.00;100220.97;5067705;28;20182;-78
2023/12/26 06:51:15;;;;;;;5.50;1.87;;;;;;;9.46;100.00;100230.47;5070581;28;20598;-77
2023/12/26 06:53:43;;;;;;;4.70;2.10;;;;;;;9.54;100.00;100240.75;5069191;28;20295;-78
2023/12/26 06:56:09;;;;;;;3.70;1.90;;;;;;;9.50;100.00;100239.06;5062166;28;21402;-78
2023/12/26 06:58:34;;;;;;;6.20;2.40;;;;;;;9.50;100.00;100241.66;5071634;28;20189;-78
2023/12/26 07:01:02;;;;;;;3.00;1.97;;;;;;;9.51;100.00;100253.72;5066454;28;20273;-77
2023/12/26 07:03:28;;;;;;;3.63;1.77;;;;;;;9.49;100.00;100258.03;5076961;28;20254;-79
2023/12/26 07:05:53;;;;;;;2.43;1.53;;;;;;;9.51;100.00;100268.34;5077220;28;20185;-79
2023/12/26 07:08:20;;;;;;;4.50;2.33;;;;;;;9.53;100.00;100257.13;5077718;28;20264;-78
2023/12/26 07:10:45;;;;;;;5.40;2.23;;;;;;;9.57;100.00;100255.41;5078455;28;20300;-77
2023/12/26 07:13:10;;;;;;;4.70;2.07;;;;;;;9.53;100.00;100251.97;5075781;28;20316;-78
2023/12/26 07:15:36;;;;;;;6.03;2.40;;;;;;;9.52;100.00;100262.31;5075915;28;20187;-78
2023/12/26 07:18:01;;;;;;;3.67;1.77;;;;;;;9.55;100.00;100267.47;5077244;28;20213;-79
2023/12/26 07:20:27;;;;;;;4.47;2.10;;;;;;;9.55;100.00;100273.47;5074485;28;20210;-79
2023/12/26 07:22:52;;;;;;;4.33;1.63;;;;;;;9.53;100.00;100275.22;5083414;28;20728;-79
2023/12/26 07:25:17;;;;;;;3.60;2.00;;;;;;;9.53;100.00;100277.78;5083685;28;20246;-78
2023/12/26 07:27:43;;;;;;;3.17;1.93;;;;;;;9.53;100.00;100285.53;5078655;28;20236;-79
2023/12/26 07:30:08;;;;;;;6.00;2.60;;;;;;;9.58;100.00;100293.28;5077237;28;20209;-78
2023/12/26 07:32:34;;;;;;;4.17;2.60;;;;;;;9.58;100.00;100303.63;5075537;28;20229;-78
2023/12/26 07:34:59;;;;;;;3.90;2.37;;;;;;;9.54;100.00;100287.25;5072506;28;20646;-78
2023/12/26 07:37:25;;;;;;;3.47;2.00;;;;;;;9.56;100.00;100310.53;5076129;28;20249;-77
2023/12/26 07:39:50;;;;;;;4.67;2.23;;;;;;;9.57;100.00;100312.25;5077818;28;22316;-78
2023/12/26 07:42:15;;;;;;;4.30;1.90;;;;;;;9.55;100.00;100314.81;5072527;28;20272;-79
2023/12/26 07:44:41;;;;;;;2.83;2.00;;;;;;;9.55;100.00;100317.41;5071933;28;20346;-79
2023/12/26 07:47:06;;;;;;;5.37;1.77;;;;;;;9.61;100.00;100314.81;5076647;28;20180;-78
2023/12/26 07:49:32;;;;;;;4.43;2.13;;;;;;;9.60;100.00;100320.84;5072466;28;20234;-78
2023/12/26 07:51:57;;;;;;;5.73;2.07;;;;;;;9.63;100.00;100329.44;5079036;28;21045;-78
2023/12/26 07:54:22;;;;;;;4.37;2.00;;;;;;;9.63;100.00;100330.28;5081022;28;20212;-79
2023/12/26 07:56:48;;;;;;;4.03;2.03;;;;;;;9.65;100.00;100336.31;5079488;28;20221;-79
2023/12/26 07:59:13;;;;;;;2.57;1.83;;;;;;;9.65;100.00;100348.38;5076583;28;20182;-79
2023/12/26 08:01:39;;;;;;;4.57;1.97;;;;;;;9.66;100.00;100339.78;5075939;28;20293;-79
2023/12/26 08:04:04;;;;;;;3.80;2.00;;;;;;;9.66;100.00;100350.94;5077280;28;20238;-76
2023/12/26 08:06:31;;;;;;;4.13;2.20;;;;;;;9.70;100.00;100356.97;5076652;28;20251;-78
2023/12/26 08:08:58;;;;;;;3.17;1.60;;;;;;;9.67;100.00;100359.59;5067343;28;20919;-78
2023/12/26 08:11:24;;;;;;;2.93;2.10;;;;;;;9.73;100.00;100356.94;5065673;28;20241;-79
2023/12/26 08:13:50;;;;;;;4.53;2.07;;;;;;;9.74;100.00;100369.00;5078530;28;20185;-79
2023/12/26 08:16:15;;;;;;;4.03;2.03;;;;;;;9.73;100.00;100373.34;5076951;28;20304;-79
2023/12/26 08:18:41;;;;;;;5.27;2.10;;;;;;;9.70;100.00;100375.91;5078622;28;20179;-79
2023/12/26 08:21:06;;;;;;;2.43;1.73;;;;;;;9.77;100.00;100381.94;5075264;28;20210;-78
2023/12/26 08:23:35;;;;;;;4.00;1.90;;;;;;;9.73;100.00;100380.22;5075812;28;20232;-78
2023/12/26 08:26:02;;;;;;;4.17;1.90;;;;;;;9.74;100.00;100380.22;5071343;28;20230;-79
2023/12/26 08:28:27;;;;;;;3.10;1.77;;;;;;;9.72;100.00;100381.94;5073639;28;20299;-78
2023/12/26 08:30:52;;;;;;;4.43;2.33;;;;;;;9.80;100.00;100389.66;5070914;28;20235;-78
2023/12/26 08:33:18;;;;;;;2.93;1.87;;;;;;;9.76;100.00;100383.63;5076999;28;20197;-78
2023/12/26 08:35:43;;;;;;;3.57;2.00;;;;;;;9.80;100.00;100384.50;5080042;28;20300;-77
2023/12/26 08:38:08;;;;;;;2.63;1.77;;;;;;;9.85;100.00;100387.91;5069968;28;20265;-79
2023/12/26 08:40:34;;;;;;;3.47;1.73;;;;;;;9.90;100.00;100398.25;5081690;28;20616;-78
2023/12/26 08:42:59;;;;;;;4.83;2.10;;;;;;;9.92;100.00;100396.50;5075539;28;20690;-79
2023/12/26 08:45:24;;;;;;;5.10;2.23;;;;;;;9.95;100.00;100404.25;5074199;28;20856;-79
2023/12/26 08:47:52;;;;;;;2.27;1.80;;;;;;;9.98;100.00;100408.56;5072522;28;20204;-78
2023/12/26 08:50:19;;;;;;;4.93;1.97;;;;;;;10.01;100.00;100409.41;5076479;28;21230;-78
2023/12/26 08:52:44;;;;;;;4.27;1.90;;;;;;;10.04;100.00;100424.91;5075623;28;20204;-80
2023/12/26 08:55:09;;;;;;;3.57;2.00;;;;;;;10.10;100.00;100425.72;5072566;28;20185;-79
2023/12/26 08:57:35;;;;;;;4.83;1.90;;;;;;;10.07;100.00;100418.84;5073970;28;20328;-78
2023/12/26 09:00:00;;;;;;;13.73;5.57;;;;;;;10.10;100.00;100420.53;5071953;28;20764;-78
2023/12/26 09:02:25;;;;;;;7.73;3.40;;;;;;;10.06;100.00;100425.72;5070851;28;20224;-79
2023/12/26 09:04:51;;;;;;;5.27;2.70;;;;;;;10.11;100.00;100432.63;5074358;28;20654;-78
2023/12/26 09:07:16;;;;;;;6.00;2.80;;;;;;;10.12;100.00;100448.13;5075070;28;20301;-78
2023/12/26 09:09:42;;;;;;;7.57;4.27;;;;;;;10.14;100.00;100438.63;5077160;28;20386;-79
2023/12/26 09:12:08;;;;;;;9.87;5.90;;;;;;;10.18;100.00;100460.19;5073961;28;20213;-78
2023/12/26 09:14:34;;;;;;;5.67;2.43;;;;;;;10.15;100.00;100452.44;5068244;28;20189;-78
2023/12/26 09:17:00;;;;;;;6.40;2.47;;;;;;;10.15;100.00;100455.84;5075278;28;20196;-77
2023/12/26 09:19:25;;;;;;;4.17;2.13;;;;;;;10.09;100.00;100458.50;5077975;28;20206;-78
2023/12/26 09:21:51;;;;;;;5.77;2.30;;;;;;;10.10;100.00;100449.88;5076016;28;20206;-78
2023/12/26 09:24:16;;;;;;;3.57;1.90;;;;;;;10.06;100.00;100448.16;5071126;28;20189;-80
2023/12/26 09:26:42;;;;;;;3.70;2.30;;;;;;;10.04;100.00;100455.06;5073677;28;20182;-78
2023/12/26 09:29:07;;;;;;;7.23;2.70;;;;;;;10.04;100.00;100462.81;5074271;28;20277;-78
2023/12/26 09:31:32;;;;;;;3.87;2.03;;;;;;;10.03;100.00;100474.00;5079042;28;20308;-78
2023/12/26 09:33:58;;;;;;;5.87;2.50;;;;;;;10.02;100.00;100483.50;5076982;28;20186;-78
2023/12/26 09:36:23;;;;;;;4.47;2.17;;;;;;;10.03;100.00;100485.22;5078122;28;20198;-77
2023/12/26 09:38:48;;;;;;;4.80;2.47;;;;;;;10.11;100.00;100481.75;5077375;28;20840;-78
2023/12/26 09:41:16;;;;;;;3.73;2.10;;;;;;;10.20;100.00;100487.75;5080087;28;20205;-77
2023/12/26 09:43:42;;;;;;;3.67;2.13;;;;;;;10.27;100.00;100483.41;5074464;28;20175;-79
2023/12/26 09:46:08;;;;;;;5.27;2.60;;;;;;;10.25;100.00;100494.63;5076175;28;20188;-78
2023/12/26 09:48:33;;;;;;;4.20;2.03;;;;;;;10.27;100.00;100492.91;5077524;28;20180;-78
2023/12/26 09:51:05;;;;;;;6.00;2.57;;;;;;;10.26;100.00;100491.19;5071578;28;20221;-77
2023/12/26 09:53:33;;;;;;;3.03;2.30;;;;;;;10.25;100.00;100487.72;5081223;28;20189;-79
2023/12/26 09:55:59;;;;;;;2.57;1.80;;;;;;;10.19;100.00;100488.59;5078908;28;20293;-78
2023/12/26 09:58:25;;;;;;;4.40;2.30;;;;;;;10.13;100.00;100486.06;5076464;28;20220;-78
2023/12/26 10:00:52;;;;;;;6.83;2.70;;;;;;;10.11;100.00;100499.84;5077687;28;20208;-78
2023/12/26 10:03:18;;;;;;;3.47;2.43;;;;;;;10.07;100.00;100506.75;5077390;28;20672;-77
2023/12/26 10:05:44;;;;;;;4.37;2.23;;;;;;;10.01;100.00;100510.22;5076184;28;20196;-77
2023/12/26 10:08:09;;;;;;;4.07;2.37;;;;;;;10.04;100.00;100514.53;5079645;28;20182;-77
2023/12/26 10:10:35;;;;;;;6.03;2.23;;;;;;;10.03;100.00;100505.91;5077536;28;20615;-78
2023/12/26 10:13:00;;;;;;;3.70;2.00;;;;;;;10.03;100.00;100498.16;5078466;28;20217;-78
2023/12/26 10:15:26;;;;;;;5.10;2.27;;;;;;;9.96;100.00;100493.00;5079507;28;20182;-77
2023/12/26 10:17:53;;;;;;;3.03;1.80;;;;;;;9.95;100.00;100494.72;5078732;28;20186;-79
2023/12/26 10:20:19;;;;;;;5.90;2.40;;;;;;;10.00;100.00;100493.00;5079952;28;20205;-78
2023/12/26 10:22:45;;;;;;;3.17;2.17;;;;;;;10.00;100.00;100497.28;5077011;28;20189;-79
2023/12/26 10:25:14;;;;;;;2.70;2.30;;;;;;;9.94;100.00;100511.09;5078073;28;20183;-79
2023/12/26 10:27:40;;;;;;;5.20;2.60;;;;;;;10.03;100.00;100507.63;5078395;28;20184;-79
2023/12/26 10:30:06;;;;;;;2.53;1.80;;;;;;;10.01;100.00;100511.94;5078040;28;20201;-78
2023/12/26 10:32:32;;;;;;;3.83;2.50;;;;;;;10.07;100.00;100523.13;5081074;28;20209;-77
2023/12/26 10:35:13;;;;;;;5.50;2.60;;;;;;;10.12;100.00;100524.84;5073902;28;20273;-77
2023/12/26 10:37:38;;;;;;;3.90;2.30;;;;;;;10.19;100.00;100524.81;5089002;28;20181;-77
2023/12/26 10:40:04;;;;;;;5.07;2.40;;;;;;;10.26;100.00;100523.06;5073328;28;20208;-79
2023/12/26 10:42:31;;;;;;;6.70;5.20;;;;;;;10.35;100.00;100529.94;5080974;28;20217;-77
2023/12/26 10:45:00;;;;;;;7.47;6.00;;;;;;;10.38;100.00;100535.13;5075223;28;20289;-79
2023/12/26 10:47:27;;;;;;;4.90;4.00;;;;;;;10.45;100.00;100535.97;5065468;28;20178;-77
2023/12/26 10:49:56;;;;;;;5.10;4.13;;;;;;;10.57;100.00;100538.50;5075171;28;20219;-77
2023/12/26 10:52:24;;;;;;;6.77;5.13;;;;;;;10.64;100.00;100537.59;5071462;28;20214;-79
2023/12/26 10:54:53;;;;;;;6.90;4.40;;;;;;;10.64;100.00;100540.19;5073732;28;20180;-79
2023/12/26 10:57:18;;;;;;;5.90;3.67;;;;;;;10.62;100.00;100547.09;5072423;28;20192;-77
2023/12/26 13:51:58;;;;;;;4.00;2.43;;;;;;;10.30;100.00;100513.56;5067756;28;20461;-78
2023/12/26 13:55:02;;;;;;;3.80;2.60;;;;;;;10.24;100.00;100529.97;5069179;28;20200;-78
2023/12/26 13:58:04;;;;;;;6.20;2.33;;;;;;;10.23;100.00;100533.41;5069811;28;20208;-78
2023/12/26 14:01:07;;;;;;;5.70;2.90;;;;;;;10.21;100.00;100550.66;5070083;28;20205;-78
2023/12/26 14:04:10;;;;;;;3.13;2.47;;;;;;;10.14;100.00;100564.50;5070549;28;20196;-78
2023/12/26 14:07:13;;;;;;;6.87;2.50;;;;;;;10.03;100.00;100573.16;5070443;28;20177;-77
2023/12/26 14:10:16;;;;;;;3.97;2.30;;;;;;;9.90;100.00;100579.22;5074241;28;20667;-78
2023/12/26 14:13:19;;;;;;;5.77;2.63;;;;;;;9.76;100.00;100592.13;5073519;28;20712;-78